Time;durP1;ratioP1;P1;durP2;ratioP2;P2;SDS_P1;SDS_P2;PMS_P1;PMS_P2;Temp;Humidity;BMP_temperature;BMP_pressure;BME280_temperature;BME280_humidity;BME280_pressure;Samples;Min_cycle;Max_cycle;Signal;HPM_P1;HPM_P2
2022/06/26 00:01:32;;;;;;;151.40;128.82;;;;;;;;;;5007051;28;20209;-54
2022/06/26 00:03:58;;;;;;;158.73;129.48;;;21.40;99.90;;;;;;5003745;28;20313;-55
2022/06/26 00:06:24;;;;;;;136.95;122.38;;;21.30;99.90;;;;;;5006055;28;20221;-54
2022/06/26 00:08:49;;;;;;;152.95;126.78;;;21.40;99.90;;;;;;5007184;28;20188;-55
2022/06/26 00:11:15;;;;;;;154.45;125.20;;;21.30;99.90;;;;;;5002656;28;20216;-55
2022/06/26 00:13:41;;;;;;;175.15;135.88;;;21.10;99.90;;;;;;5004695;28;20220;-54
2022/06/26 00:16:07;;;;;;;127.40;114.53;;;21.20;99.90;;;;;;4980236;28;20220;-54
2022/06/26 00:18:33;;;;;;;149.00;123.97;;;;;;;;;;5008041;28;20275;-55
2022/06/26 00:20:59;;;;;;;134.32;114.38;;;21.00;99.90;;;;;;5007221;28;20185;-55
2022/06/26 00:23:24;;;;;;;149.10;124.00;;;;;;;;;;5004814;28;20573;-55
2022/06/26 00:25:50;;;;;;;167.52;133.32;;;;;;;;;;5003891;28;20632;-55
2022/06/26 00:28:16;;;;;;;174.82;131.07;;;21.10;99.90;;;;;;5004581;28;20209;-55
2022/06/26 00:30:42;;;;;;;164.40;128.43;;;21.10;99.90;;;;;;5003947;28;20208;-54
2022/06/26 00:33:07;;;;;;;129.30;115.68;;;20.90;99.90;;;;;;5001889;28;20211;-54
2022/06/26 00:35:33;;;;;;;157.65;126.50;;;21.00;99.90;;;;;;5002821;28;20193;-54
2022/06/26 00:37:58;;;;;;;144.23;121.07;;;21.00;99.90;;;;;;5004164;28;20639;-54
2022/06/26 00:40:24;;;;;;;184.65;133.45;;;21.00;99.90;;;;;;5001698;28;20209;-55
2022/06/26 00:42:49;;;;;;;145.35;118.53;;;20.70;99.90;;;;;;5002264;28;20582;-54
2022/06/26 00:45:15;;;;;;;191.60;135.88;;;;;;;;;;5000646;28;20201;-55
2022/06/26 00:47:41;;;;;;;153.23;118.40;;;20.80;99.90;;;;;;4996906;28;20194;-54
2022/06/26 00:50:08;;;;;;;203.18;135.30;;;;;;;;;;5000200;28;20759;-55
2022/06/26 00:52:35;;;;;;;170.38;127.28;;;20.60;99.90;;;;;;4997517;28;20620;-55
2022/06/26 00:55:02;;;;;;;128.18;114.57;;;20.90;99.90;;;;;;5005125;28;20232;-54
2022/06/26 00:57:28;;;;;;;154.85;125.05;;;20.80;99.90;;;;;;4999533;28;20225;-55
2022/06/26 00:59:55;;;;;;;200.38;130.13;;;20.60;99.90;;;;;;4999705;28;20184;-55
2022/06/26 01:02:21;;;;;;;170.98;127.00;;;20.70;99.90;;;;;;4999651;28;20496;-55
2022/06/26 01:04:46;;;;;;;142.32;119.57;;;20.40;99.90;;;;;;5005596;28;20672;-54
2022/06/26 01:07:12;;;;;;;171.68;128.18;;;20.30;99.90;;;;;;4999475;28;20225;-54
2022/06/26 01:09:38;;;;;;;158.02;125.80;;;20.60;99.90;;;;;;5001519;28;20220;-54
2022/06/26 01:12:05;;;;;;;155.75;120.35;;;20.40;99.90;;;;;;5000606;28;20343;-54
2022/06/26 01:14:31;;;;;;;191.90;136.68;;;20.40;99.90;;;;;;5002882;28;20697;-54
2022/06/26 01:16:57;;;;;;;170.38;130.30;;;20.40;99.90;;;;;;4997658;28;20226;-54
2022/06/26 01:19:24;;;;;;;177.23;125.00;;;20.30;99.90;;;;;;4999235;28;20228;-54
2022/06/26 01:21:49;;;;;;;144.13;112.78;;;20.30;99.90;;;;;;4999107;28;20539;-55
2022/06/26 01:24:15;;;;;;;175.90;124.43;;;;;;;;;;4997339;28;20189;-55
2022/06/26 01:26:41;;;;;;;169.57;126.50;;;20.30;99.90;;;;;;5000151;28;20458;-54
2022/06/26 01:29:07;;;;;;;176.02;129.88;;;20.40;99.90;;;;;;4998416;28;20225;-54
2022/06/26 01:31:34;;;;;;;115.50;103.03;;;20.30;99.90;;;;;;5000397;28;20453;-54
2022/06/26 01:34:00;;;;;;;131.80;111.18;;;;;;;;;;4986535;28;20225;-55
2022/06/26 01:36:26;;;;;;;145.73;112.72;;;;;;;;;;5004888;28;20561;-54
2022/06/26 01:38:51;;;;;;;164.98;119.22;;;20.40;99.90;;;;;;5001544;28;20177;-54
2022/06/26 01:41:17;;;;;;;172.98;124.25;;;20.50;99.90;;;;;;5002415;28;20239;-54
2022/06/26 01:43:42;;;;;;;172.57;118.72;;;20.20;99.90;;;;;;5003030;28;20212;-54
2022/06/26 01:46:09;;;;;;;118.20;103.88;;;20.30;99.90;;;;;;5000383;28;20209;-54
2022/06/26 01:48:37;;;;;;;153.70;112.22;;;20.10;99.90;;;;;;5002003;28;20205;-55
2022/06/26 01:51:03;;;;;;;107.90;91.68;;;20.40;99.90;;;;;;5005333;28;20283;-54
2022/06/26 01:53:29;;;;;;;163.48;121.97;;;;;;;;;;5002793;28;20312;-54
2022/06/26 01:55:55;;;;;;;125.88;105.70;;;;;;;;;;4996727;28;20542;-54
2022/06/26 01:58:21;;;;;;;162.77;114.93;;;;;;;;;;5005354;28;20244;-54
2022/06/26 02:00:48;;;;;;;150.25;109.82;;;20.90;99.90;;;;;;4998962;28;20212;-54
2022/06/26 02:03:15;;;;;;;160.68;116.90;;;20.10;99.90;;;;;;5000632;28;20266;-54
2022/06/26 02:05:41;;;;;;;159.23;110.30;;;;;;;;;;5001439;28;20267;-54
2022/06/26 02:08:07;;;;;;;129.57;104.68;;;19.70;99.90;;;;;;5006955;28;20217;-54
2022/06/26 02:13:36;;;;;;;132.82;97.78;;;20.00;99.90;;;;;;5000820;28;20263;-55
2022/06/26 02:16:07;;;;;;;126.35;96.22;;;19.80;99.90;;;;;;4999502;28;20248;-54
2022/06/26 02:18:33;;;;;;;125.28;100.20;;;20.10;99.90;;;;;;5000468;28;20300;-54
2022/06/26 02:20:59;;;;;;;143.60;102.47;;;19.90;99.90;;;;;;5001609;28;20695;-54
2022/06/26 02:23:25;;;;;;;140.15;108.03;;;20.10;99.90;;;;;;5000816;28;20189;-54
2022/06/26 02:25:51;;;;;;;156.45;107.78;;;20.10;99.90;;;;;;4999030;28;20229;-54
2022/06/26 02:28:17;;;;;;;123.20;96.63;;;19.90;99.90;;;;;;5005874;28;20217;-54
2022/06/26 02:30:43;;;;;;;123.20;99.50;;;19.70;99.90;;;;;;5003323;28;20239;-54
2022/06/26 02:33:08;;;;;;;150.35;106.15;;;19.70;99.90;;;;;;5003385;28;20185;-55
2022/06/26 02:35:34;;;;;;;142.98;106.72;;;19.80;99.90;;;;;;5004380;28;20200;-54
2022/06/26 02:38:00;;;;;;;163.23;111.65;;;19.80;99.90;;;;;;5000321;28;20733;-54
2022/06/26 02:40:30;;;;;;;163.75;104.28;;;19.70;99.90;;;;;;5000876;28;20209;-54
2022/06/26 02:42:56;;;;;;;144.90;102.95;;;19.70;99.90;;;;;;5006663;28;20223;-54
2022/06/26 02:45:22;;;;;;;182.32;115.15;;;19.80;99.90;;;;;;4998634;28;20220;-54
2022/06/26 02:47:48;;;;;;;141.15;96.03;;;19.60;99.90;;;;;;5003186;28;20181;-54
2022/06/26 02:50:15;;;;;;;163.77;115.05;;;19.70;99.90;;;;;;4999784;28;20227;-54
2022/06/26 02:52:41;;;;;;;148.75;106.97;;;19.80;99.90;;;;;;5000698;28;20215;-55
2022/06/26 02:55:07;;;;;;;141.93;106.78;;;19.90;99.90;;;;;;5008591;28;20217;-55
2022/06/26 02:57:33;;;;;;;106.53;87.38;;;;;;;;;;4999793;28;20242;-54
2022/06/26 02:59:59;;;;;;;165.65;111.50;;;19.60;99.90;;;;;;4999477;28;20189;-54
2022/06/26 03:02:24;;;;;;;171.30;108.22;;;19.40;99.90;;;;;;5003456;28;20193;-54
2022/06/26 03:04:51;;;;;;;145.65;101.95;;;19.60;99.90;;;;;;5002244;28;20621;-54
2022/06/26 03:07:17;;;;;;;121.95;96.20;;;19.50;99.90;;;;;;5002424;28;20299;-54
2022/06/26 03:09:42;;;;;;;130.02;96.20;;;19.70;99.90;;;;;;5001310;28;20300;-54
2022/06/26 03:12:08;;;;;;;174.25;107.35;;;;;;;;;;5002507;28;20196;-55
2022/06/26 03:14:34;;;;;;;150.10;106.38;;;;;;;;;;5000105;28;20774;-54
2022/06/26 03:17:00;;;;;;;130.65;91.63;;;;;;;;;;5002418;28;20301;-55
2022/06/26 03:19:27;;;;;;;184.75;109.00;;;;;;;;;;5000666;28;20220;-54
2022/06/26 03:21:53;;;;;;;131.00;91.90;;;;;;;;;;5001672;28;20507;-54
2022/06/26 03:24:19;;;;;;;128.20;99.20;;;;;;;;;;5001141;28;20582;-54
2022/06/26 03:26:45;;;;;;;80.97;73.97;;;;;;;;;;5006829;28;20300;-55
2022/06/26 03:29:11;;;;;;;142.82;94.75;;;19.90;99.90;;;;;;5001181;28;20679;-54
2022/06/26 03:31:37;;;;;;;145.82;97.80;;;;;;;;;;4984024;28;20734;-54
2022/06/26 03:34:03;;;;;;;140.13;101.80;;;20.00;99.90;;;;;;5003815;28;20320;-54
2022/06/26 03:36:29;;;;;;;127.32;95.50;;;;;;;;;;5000959;28;20255;-54
2022/06/26 03:38:56;;;;;;;180.15;108.47;;;19.90;99.90;;;;;;5000576;28;20216;-54
2022/06/26 03:41:22;;;;;;;132.40;98.97;;;20.00;99.90;;;;;;4996700;28;20227;-54
2022/06/26 03:43:48;;;;;;;136.88;97.38;;;20.00;99.90;;;;;;5001913;28;20276;-55
2022/06/26 03:46:14;;;;;;;162.40;114.32;;;20.10;99.90;;;;;;4997305;28;20224;-54
2022/06/26 03:48:40;;;;;;;122.15;88.65;;;19.80;99.90;;;;;;4999128;28;20212;-54
2022/06/26 03:51:06;;;;;;;125.40;91.20;;;19.90;99.90;;;;;;4984220;28;20262;-55
2022/06/26 03:53:32;;;;;;;183.15;122.20;;;20.10;99.90;;;;;;4998420;28;20212;-54
2022/06/26 03:55:58;;;;;;;143.23;97.03;;;20.10;99.90;;;;;;4999383;28;20558;-55
2022/06/26 03:58:24;;;;;;;147.95;108.28;;;19.90;99.90;;;;;;5004297;28;20307;-55
2022/06/26 04:00:50;;;;;;;134.52;105.78;;;19.70;99.90;;;;;;5002960;28;22075;-54
2022/06/26 04:03:16;;;;;;;137.80;110.30;;;19.80;99.90;;;;;;5004231;28;20428;-54
2022/06/26 04:05:41;;;;;;;140.80;105.82;;;20.00;99.90;;;;;;5003075;28;20204;-54
2022/06/26 04:08:07;;;;;;;166.48;116.95;;;20.20;99.90;;;;;;5000479;28;20218;-54
2022/06/26 04:10:34;;;;;;;148.65;108.15;;;20.00;99.90;;;;;;5005208;28;20753;-55
2022/06/26 04:13:05;;;;;;;118.05;94.70;;;20.00;99.90;;;;;;5002381;28;20239;-55
2022/06/26 04:15:32;;;;;;;120.22;98.68;;;20.00;99.90;;;;;;5003071;28;20497;-54
2022/06/26 04:17:58;;;;;;;151.95;108.28;;;20.00;99.90;;;;;;5003836;28;20192;-54
2022/06/26 04:20:24;;;;;;;163.15;112.80;;;20.00;99.90;;;;;;5009943;28;20212;-54
2022/06/26 04:22:56;;;;;;;125.10;100.55;;;20.00;99.90;;;;;;5001691;28;20213;-55
2022/06/26 04:25:21;;;;;;;126.35;97.57;;;20.10;99.90;;;;;;4987058;28;20258;-55
2022/06/26 04:27:47;;;;;;;115.47;95.10;;;20.10;99.90;;;;;;5007254;28;20299;-54
2022/06/26 04:30:12;;;;;;;145.95;111.65;;;20.20;99.90;;;;;;5004817;28;20336;-54
2022/06/26 04:32:38;;;;;;;184.57;121.35;;;20.20;99.90;;;;;;5002983;28;20188;-55
2022/06/26 04:35:04;;;;;;;169.60;119.20;;;;;;;;;;5001003;28;20224;-55
2022/06/26 04:37:29;;;;;;;114.70;102.07;;;20.20;99.90;;;;;;5005028;28;20212;-54
2022/06/26 04:39:55;;;;;;;112.28;100.38;;;20.40;99.90;;;;;;5004993;28;20216;-55
2022/06/26 04:42:20;;;;;;;154.07;125.53;;;20.40;99.90;;;;;;4985860;28;20989;-54
2022/06/26 04:44:46;;;;;;;145.93;117.43;;;21.10;99.90;;;;;;5006296;28;20685;-54
2022/06/26 04:47:11;;;;;;;139.73;111.85;;;20.70;99.90;;;;;;5005045;28;20229;-54
2022/06/26 04:49:37;;;;;;;118.45;106.20;;;20.50;99.90;;;;;;5005298;28;20553;-54
2022/06/26 04:52:03;;;;;;;146.73;117.45;;;20.50;99.90;;;;;;4999225;28;20210;-54
2022/06/26 04:54:28;;;;;;;150.25;124.13;;;;;;;;;;5003760;28;20283;-54
2022/06/26 04:56:54;;;;;;;124.38;106.53;;;20.60;99.90;;;;;;5003552;28;20209;-55
2022/06/26 04:59:20;;;;;;;135.45;120.15;;;20.60;99.90;;;;;;5004076;28;20224;-54
2022/06/26 05:01:45;;;;;;;169.02;138.98;;;20.60;99.90;;;;;;4998488;28;20272;-54
2022/06/26 05:04:11;;;;;;;138.15;113.38;;;20.70;99.90;;;;;;4997363;28;20213;-54
2022/06/26 05:06:36;;;;;;;141.82;113.40;;;20.80;99.90;;;;;;4999906;28;20228;-54
2022/06/26 05:09:02;;;;;;;177.07;136.65;;;20.90;99.90;;;;;;5001023;28;20181;-54
2022/06/26 05:11:28;;;;;;;130.00;115.72;;;21.00;99.90;;;;;;5006286;28;20188;-55
2022/06/26 05:13:54;;;;;;;185.27;129.25;;;21.10;99.90;;;;;;5004374;28;20713;-55
2022/06/26 05:16:19;;;;;;;147.00;122.55;;;21.30;99.90;;;;;;5000983;28;20216;-56
2022/06/26 05:18:45;;;;;;;158.32;133.65;;;21.40;99.90;;;;;;4997747;28;20212;-56
2022/06/26 05:21:10;;;;;;;181.60;134.20;;;21.40;99.90;;;;;;4996827;28;20208;-56
2022/06/26 05:23:36;;;;;;;151.43;132.73;;;21.50;99.90;;;;;;5006990;28;20263;-56
2022/06/26 05:26:02;;;;;;;200.93;147.32;;;21.10;99.90;;;;;;5003767;28;20255;-56
2022/06/26 05:28:28;;;;;;;164.98;129.38;;;21.70;99.90;;;;;;5006614;28;20224;-56
2022/06/26 05:30:53;;;;;;;166.75;131.13;;;21.70;99.90;;;;;;5003448;28;20213;-56
2022/06/26 05:33:19;;;;;;;179.48;148.95;;;21.70;99.90;;;;;;4999637;28;20228;-56
2022/06/26 05:35:44;;;;;;;262.45;188.43;;;21.70;99.90;;;;;;5004033;28;20900;-56
2022/06/26 05:38:10;;;;;;;215.30;151.75;;;21.80;99.90;;;;;;4999883;28;20216;-56
2022/06/26 05:40:35;;;;;;;215.57;158.60;;;21.80;99.90;;;;;;4996587;28;20522;-55
2022/06/26 05:43:01;;;;;;;170.55;142.80;;;21.90;99.90;;;;;;5006182;28;20217;-54
2022/06/26 05:45:26;;;;;;;197.10;159.57;;;22.00;99.90;;;;;;5000593;28;20213;-55
2022/06/26 05:47:52;;;;;;;260.42;192.38;;;22.10;99.90;;;;;;5000955;28;20531;-55
2022/06/26 05:50:18;;;;;;;236.93;181.93;;;22.30;99.90;;;;;;5004728;28;21073;-55
2022/06/26 05:52:43;;;;;;;189.43;158.98;;;22.40;99.90;;;;;;5004898;28;20553;-55
2022/06/26 05:55:09;;;;;;;221.60;171.93;;;22.50;99.90;;;;;;5004166;28;20217;-53
2022/06/26 05:57:34;;;;;;;182.45;158.00;;;23.40;99.90;;;;;;5003470;28;20220;-55
2022/06/26 06:00:00;;;;;;;191.57;156.75;;;22.70;99.90;;;;;;5001338;28;20340;-54
2022/06/26 06:02:25;;;;;;;238.48;174.00;;;22.80;99.90;;;;;;5000240;28;20185;-55
2022/06/26 06:04:51;;;;;;;178.35;159.55;;;22.90;99.90;;;;;;5003826;28;20572;-55
2022/06/26 06:07:17;;;;;;;205.93;175.38;;;21.50;99.90;;;;;;5003355;28;20650;-55
2022/06/26 06:09:42;;;;;;;263.98;194.07;;;23.00;99.90;;;;;;4998761;28;20577;-54
2022/06/26 06:12:08;;;;;;;240.00;181.25;;;23.00;99.90;;;;;;4993097;28;20184;-55
2022/06/26 06:14:34;;;;;;;174.40;155.88;;;23.10;99.90;;;;;;4985434;28;20216;-55
2022/06/26 06:17:35;;;;;;;191.25;170.27;;;23.20;99.90;;;;;;4998784;28;20228;-56
2022/06/26 06:19:45;;;;;;;183.50;163.68;;;23.40;99.90;;;;;;5000151;28;20308;-55
2022/06/26 06:22:10;;;;;;;279.88;189.18;;;23.50;99.90;;;;;;4993267;28;20213;-53
2022/06/26 06:24:36;;;;;;;229.75;168.50;;;23.60;99.90;;;;;;4995143;28;20209;-54
2022/06/26 06:27:01;;;;;;;242.98;182.40;;;23.60;97.50;;;;;;5000784;28;20274;-53
2022/06/26 06:29:27;;;;;;;221.23;171.52;;;23.70;53.50;;;;;;5004869;28;20526;-53
2022/06/26 06:31:52;;;;;;;231.55;171.90;;;23.70;16.90;;;;;;4999755;28;20213;-54
2022/06/26 06:34:18;;;;;;;289.13;187.57;;;24.00;1.00;;;;;;4992182;28;21006;-53
2022/06/26 06:36:43;;;;;;;197.35;163.93;;;23.90;13.30;;;;;;4992904;28;20334;-53
2022/06/26 06:39:09;;;;;;;230.65;178.43;;;24.00;1.10;;;;;;4999869;28;20192;-53
2022/06/26 06:41:34;;;;;;;232.18;192.93;;;24.10;1.00;;;;;;5004337;28;20561;-53
2022/06/26 06:44:00;;;;;;;200.73;178.77;;;24.10;1.00;;;;;;4997234;28;20845;-53
2022/06/26 06:46:25;;;;;;;278.40;207.95;;;24.40;19.30;;;;;;4996713;28;20584;-53
2022/06/26 06:48:51;;;;;;;274.52;225.18;;;24.30;1.00;;;;;;5002116;28;20295;-53
2022/06/26 06:51:17;;;;;;;258.70;214.73;;;;;;;;;;4985107;28;20211;-53
2022/06/26 06:53:42;;;;;;;270.83;219.55;;;24.60;13.80;;;;;;4997142;28;20229;-53
2022/06/26 06:56:08;;;;;;;273.85;219.15;;;24.50;1.00;;;;;;5000221;28;20513;-54
2022/06/26 06:58:34;;;;;;;244.02;206.35;;;24.60;1.00;;;;;;4993825;28;20221;-54
2022/06/26 07:00:59;;;;;;;307.52;234.90;;;24.60;1.00;;;;;;5000027;28;20290;-53
2022/06/26 07:03:24;;;;;;;304.55;225.35;;;24.60;1.00;;;;;;4994882;28;20314;-54
2022/06/26 07:05:50;;;;;;;247.93;220.70;;;24.70;1.00;;;;;;4991772;28;20227;-51
2022/06/26 07:08:16;;;;;;;280.63;230.05;;;24.80;1.00;;;;;;4995864;28;20661;-51
2022/06/26 07:10:41;;;;;;;252.30;224.60;;;24.70;1.00;;;;;;5001384;28;20300;-51
2022/06/26 07:13:10;;;;;;;276.30;212.20;;;24.90;1.00;;;;;;4996889;28;20220;-53
2022/06/26 07:15:35;;;;;;;203.85;179.25;;;24.90;1.00;;;;;;5005401;28;20216;-54
2022/06/26 07:18:01;;;;;;;192.55;171.63;;;24.90;1.00;;;;;;5004750;28;20545;-54
2022/06/26 07:20:26;;;;;;;224.63;200.95;;;25.00;1.00;;;;;;5008000;28;20177;-54
2022/06/26 07:22:52;;;;;;;226.80;203.55;;;25.00;1.00;;;;;;4989092;28;20209;-51
2022/06/26 07:25:18;;;;;;;232.65;208.43;;;25.20;99.90;;;;;;5005326;28;20300;-52
2022/06/26 07:27:45;;;;;;;224.85;200.63;;;25.20;1.00;;;;;;5007112;28;20731;-51
2022/06/26 07:30:12;;;;;;;308.45;235.82;;;25.20;99.90;;;;;;4989425;28;20193;-51
2022/06/26 07:32:37;;;;;;;225.95;192.57;;;25.20;1.00;;;;;;4999578;28;20235;-51
2022/06/26 07:35:03;;;;;;;254.63;214.43;;;25.10;1.00;;;;;;4999279;28;20220;-51
2022/06/26 07:37:29;;;;;;;245.13;202.43;;;25.20;1.00;;;;;;5000601;28;20636;-51
2022/06/26 07:39:55;;;;;;;223.30;197.15;;;25.20;1.00;;;;;;5002174;28;20213;-52
2022/06/26 07:42:20;;;;;;;280.05;221.98;;;25.40;1.00;;;;;;5002503;28;20287;-52
2022/06/26 07:44:46;;;;;;;216.30;193.68;;;25.40;1.00;;;;;;5006031;28;20192;-51
2022/06/26 07:47:12;;;;;;;254.63;217.98;;;25.40;99.90;;;;;;5000095;28;20587;-51
2022/06/26 07:49:37;;;;;;;220.25;197.75;;;25.50;1.00;;;;;;4998396;28;20217;-51
2022/06/26 07:52:03;;;;;;;234.07;199.30;;;25.70;1.00;;;;;;5006063;28;20223;-52
2022/06/26 07:54:29;;;;;;;240.95;207.95;;;25.70;1.00;;;;;;5000871;28;20224;-52
2022/06/26 07:56:54;;;;;;;293.40;230.20;;;25.80;1.00;;;;;;4998869;28;20216;-52
2022/06/26 07:59:20;;;;;;;246.18;208.95;;;25.80;1.00;;;;;;5000405;28;20224;-54
2022/06/26 08:01:46;;;;;;;274.33;219.55;;;25.90;1.00;;;;;;5006324;28;20881;-54
2022/06/26 08:04:11;;;;;;;248.88;212.50;;;26.00;1.00;;;;;;5002081;28;20226;-54
2022/06/26 08:06:37;;;;;;;253.93;210.77;;;26.00;99.90;;;;;;5004818;28;20215;-54
2022/06/26 08:09:02;;;;;;;283.10;243.48;;;26.10;99.90;;;;;;5007887;28;20275;-54
2022/06/26 08:11:28;;;;;;;285.20;239.35;;;26.10;1.00;;;;;;5005493;28;20554;-54
2022/06/26 08:13:53;;;;;;;269.63;231.27;;;26.20;1.00;;;;;;4985314;28;20231;-54
2022/06/26 08:16:19;;;;;;;256.33;215.88;;;26.20;99.90;;;;;;5005227;28;20217;-54
2022/06/26 08:18:45;;;;;;;235.25;206.57;;;26.20;99.90;;;;;;5008516;28;20212;-54
2022/06/26 08:23:55;;;;;;;310.17;237.80;;;26.40;47.30;;;;;;4998183;28;20309;-54
2022/06/26 08:26:21;;;;;;;383.55;277.42;;;26.50;99.90;;;;;;4988583;28;20237;-54
2022/06/26 08:28:48;;;;;;;294.38;235.00;;;26.50;99.90;;;;;;4994510;28;20751;-54
2022/06/26 08:31:14;;;;;;;336.73;245.10;;;;;;;;;;4984965;28;20220;-54
2022/06/26 08:33:39;;;;;;;280.60;234.05;;;26.60;99.90;;;;;;5005727;28;20217;-54
2022/06/26 08:36:05;;;;;;;307.90;253.63;;;26.70;1.00;;;;;;5012822;28;20223;-54
2022/06/26 08:38:31;;;;;;;318.13;250.77;;;26.70;2.80;;;;;;5004310;28;20196;-54
2022/06/26 08:40:59;;;;;;;333.73;267.33;;;26.90;84.50;;;;;;5001510;28;20212;-54
2022/06/26 08:43:25;;;;;;;267.67;232.50;;;26.80;99.90;;;;;;5008651;28;20215;-54
2022/06/26 08:45:54;;;;;;;285.65;245.02;;;27.00;1.00;;;;;;5008297;28;20224;-54
2022/06/26 08:48:26;;;;;;;359.60;261.45;;;27.00;99.90;;;;;;5006130;28;20213;-54
2022/06/26 08:50:51;;;;;;;343.85;257.45;;;27.00;99.90;;;;;;5009057;28;20179;-54
2022/06/26 08:53:19;;;;;;;342.00;257.73;;;27.20;1.00;;;;;;5009073;28;20212;-53
2022/06/26 08:55:45;;;;;;;381.45;274.05;;;27.30;99.90;;;;;;5012409;28;20311;-53
2022/06/26 08:58:10;;;;;;;347.73;263.73;;;27.30;99.90;;;;;;5007795;28;20213;-53
2022/06/26 09:00:36;;;;;;;339.92;270.33;;;27.40;1.00;;;;;;5006134;28;20208;-54
2022/06/26 09:03:02;;;;;;;334.83;261.80;;;27.50;99.90;;;;;;5012725;28;20202;-54
2022/06/26 09:05:28;;;;;;;359.15;269.17;;;27.10;1.00;;;;;;5010701;28;20689;-54
2022/06/26 09:07:56;;;;;;;336.67;254.80;;;27.60;1.00;;;;;;5010057;28;20247;-54
2022/06/26 09:10:22;;;;;;;342.95;258.75;;;27.60;99.90;;;;;;5008971;28;20230;-54
2022/06/26 09:12:57;;;;;;;318.55;255.05;;;27.70;76.50;;;;;;5006726;28;20719;-53
2022/06/26 09:15:25;;;;;;;347.40;270.40;;;27.90;1.00;;;;;;5012680;28;20227;-54
2022/06/26 09:18:02;;;;;;;300.13;245.70;;;27.90;99.90;;;;;;4994447;28;20195;-54
2022/06/26 09:20:35;;;;;;;267.75;230.60;;;27.90;1.00;;;;;;5011604;28;20720;-54
2022/06/26 09:23:01;;;;;;;320.25;259.27;;;27.90;1.00;;;;;;5005782;28;20616;-54
2022/06/26 09:25:40;;;;;;;314.63;260.65;;;28.00;1.00;;;;;;5009651;28;20773;-54
2022/06/26 09:28:07;;;;;;;339.05;278.77;;;28.00;1.00;;;;;;5007502;28;20221;-54
2022/06/26 09:30:33;;;;;;;362.23;285.30;;;28.10;99.90;;;;;;5007336;28;20282;-54
2022/06/26 09:33:00;;;;;;;346.42;269.80;;;28.20;99.90;;;;;;5012747;28;20657;-54
2022/06/26 09:35:26;;;;;;;354.33;272.35;;;28.30;93.80;;;;;;5009268;28;20232;-54
2022/06/26 09:37:52;;;;;;;364.23;282.98;;;28.30;99.90;;;;;;5008843;28;20212;-54
2022/06/26 09:40:17;;;;;;;302.73;261.70;;;28.40;1.00;;;;;;5009227;28;20234;-54
2022/06/26 09:42:43;;;;;;;363.17;284.88;;;28.40;99.90;;;;;;5005700;28;20212;-54
2022/06/26 09:45:12;;;;;;;326.85;276.23;;;28.50;1.00;;;;;;5006689;28;20223;-54
2022/06/26 09:47:39;;;;;;;368.85;288.73;;;28.50;1.00;;;;;;5008152;28;20621;-54
2022/06/26 09:50:07;;;;;;;297.50;253.15;;;28.60;99.90;;;;;;5011174;28;20578;-54
2022/06/26 09:52:33;;;;;;;295.20;262.85;;;28.70;99.90;;;;;;5011047;28;20216;-54
2022/06/26 09:55:00;;;;;;;314.90;262.80;;;28.80;99.90;;;;;;5004330;28;20316;-54
2022/06/26 09:57:28;;;;;;;324.63;276.83;;;28.90;99.90;;;;;;5007409;28;20217;-54
2022/06/26 09:59:57;;;;;;;344.05;277.88;;;28.90;99.90;;;;;;5006298;28;20189;-54
2022/06/26 10:08:01;;;;;;;326.73;269.92;;;29.30;1.00;;;;;;5003509;28;20255;-54
2022/06/26 10:10:26;;;;;;;342.05;294.15;;;29.40;1.00;;;;;;5007656;28;20259;-54
2022/06/26 10:12:56;;;;;;;329.27;282.42;;;29.40;1.00;;;;;;5009107;28;20217;-56
2022/06/26 10:15:27;;;;;;;526.80;370.83;;;29.70;1.00;;;;;;4999401;28;20589;-54
2022/06/26 10:18:38;;;;;;;401.98;328.60;;;29.60;1.00;;;;;;4995598;28;20244;-51
2022/06/26 10:21:12;;;;;;;366.35;309.70;;;29.80;1.00;;;;;;4991564;28;20217;-51
2022/06/26 10:23:40;;;;;;;334.95;283.05;;;29.80;1.00;;;;;;4999709;28;20182;-54
2022/06/26 10:26:17;;;;;;;369.27;292.85;;;29.90;99.90;;;;;;4993274;28;20258;-53
2022/06/26 10:29:03;;;;;;;421.02;321.92;;;29.90;99.90;;;;;;4992933;28;20209;-53
2022/06/26 10:31:41;;;;;;;425.85;322.70;;;30.00;99.90;;;;;;4993542;28;20219;-54
2022/06/26 10:34:23;;;;;;;378.17;300.50;;;30.00;1.00;;;;;;4997133;28;20305;-54
2022/06/26 10:37:04;;;;;;;446.42;338.23;;;30.30;99.90;;;;;;4998765;28;20764;-54
2022/06/26 10:39:42;;;;;;;355.35;317.48;;;30.40;99.90;;;;;;5002983;28;20300;-54
2022/06/26 10:45:19;;;;;;;396.30;330.55;;;30.70;99.90;;;;;;4991456;28;20208;-56
2022/06/26 10:47:49;;;;;;;405.80;327.88;;;30.70;99.90;;;;;;5001610;28;20196;-53
2022/06/26 10:50:29;;;;;;;399.25;320.42;;;30.80;99.90;;;;;;5000226;28;20228;-55
2022/06/26 10:53:29;;;;;;;401.73;323.27;;;30.90;99.90;;;;;;4986918;28;20228;-54
2022/06/26 10:55:57;;;;;;;391.00;323.00;;;31.00;99.90;;;;;;4987228;28;20225;-56
2022/06/26 10:58:24;;;;;;;374.88;310.27;;;31.10;99.90;;;;;;4994501;28;20216;-54
2022/06/26 11:00:52;;;;;;;399.90;320.25;;;31.20;99.90;;;;;;4997696;28;20220;-55
2022/06/26 11:03:19;;;;;;;361.23;303.80;;;31.50;99.90;;;;;;5002388;28;20550;-54
2022/06/26 11:06:04;;;;;;;406.92;320.17;;;31.40;99.90;;;;;;4997345;28;20198;-55
2022/06/26 11:08:32;;;;;;;403.25;341.83;;;31.30;99.90;;;;;;4999102;28;20226;-53
2022/06/26 11:11:02;;;;;;;365.65;321.13;;;31.30;99.90;;;;;;5006520;28;20216;-53
2022/06/26 11:13:28;;;;;;;360.67;314.17;;;31.20;99.90;;;;;;5003623;28;20217;-53
2022/06/26 11:15:54;;;;;;;344.40;306.40;;;31.20;86.50;;;;;;5005503;28;20267;-53
2022/06/26 11:18:19;;;;;;;358.77;319.13;;;31.20;92.50;;;;;;5008504;28;20240;-53
2022/06/26 11:20:49;;;;;;;367.40;326.83;;;31.30;98.00;;;;;;5008585;28;20185;-53
2022/06/26 11:23:15;;;;;;;381.00;339.75;;;31.50;99.90;;;;;;5007681;28;20224;-53
2022/06/26 11:25:41;;;;;;;398.00;344.98;;;31.70;72.90;;;;;;5004182;28;20864;-53
2022/06/26 11:28:11;;;;;;;381.63;337.17;;;31.70;67.90;;;;;;4996819;28;20212;-53
2022/06/26 11:30:38;;;;;;;407.33;331.23;;;31.50;41.30;;;;;;4999993;28;20736;-53
2022/06/26 11:33:05;;;;;;;377.30;335.88;;;31.40;43.70;;;;;;5003601;28;20701;-53
2022/06/26 11:35:30;;;;;;;359.02;312.00;;;31.60;73.10;;;;;;5003366;28;20209;-53
2022/06/26 11:37:56;;;;;;;358.13;319.05;;;31.60;87.10;;;;;;5006049;28;20236;-53
2022/06/26 11:40:22;;;;;;;370.90;329.52;;;31.60;70.60;;;;;;5000550;28;20689;-53
2022/06/26 11:42:55;;;;;;;398.10;347.73;;;31.70;75.80;;;;;;5004072;28;20300;-53
2022/06/26 11:45:25;;;;;;;398.98;342.73;;;31.80;84.20;;;;;;5003557;28;20224;-53
2022/06/26 11:47:51;;;;;;;352.98;316.63;;;31.90;94.40;;;;;;5001017;28;20243;-53
2022/06/26 11:50:22;;;;;;;367.98;329.02;;;32.00;68.70;;;;;;5005526;28;20213;-53
2022/06/26 11:52:54;;;;;;;378.17;338.73;;;31.90;50.80;;;;;;5007105;28;20251;-53
2022/06/26 11:55:20;;;;;;;375.58;324.00;;;32.00;12.90;;;;;;4986004;28;20225;-53
2022/06/26 11:57:46;;;;;;;387.10;343.33;;;32.00;27.00;;;;;;4996738;28;20209;-53
2022/06/26 12:00:12;;;;;;;392.08;340.90;;;31.90;41.80;;;;;;4995427;28;20228;-53
2022/06/26 12:02:43;;;;;;;358.13;320.42;;;31.90;49.10;;;;;;4998833;28;20189;-53
2022/06/26 12:05:09;;;;;;;479.05;371.40;;;31.80;99.90;;;;;;4992741;28;20752;-51
2022/06/26 12:07:48;;;;;;;446.42;370.67;;;31.90;29.60;;;;;;4980846;28;20240;-52
2022/06/26 12:10:32;;;;;;;388.60;345.63;;;31.70;23.70;;;;;;4993397;28;20414;-52
2022/06/26 12:12:59;;;;;;;453.17;345.10;;;31.60;99.90;;;;;;4976699;28;20897;-53
2022/06/26 12:15:25;;;;;;;378.30;334.02;;;31.90;20.80;;;;;;4985169;28;20232;-51
2022/06/26 12:17:53;;;;;;;400.17;355.77;;;31.90;31.50;;;;;;4981182;28;20857;-51
2022/06/26 12:20:18;;;;;;;392.27;342.63;;;32.10;25.00;;;;;;5002472;28;20231;-52
2022/06/26 12:22:50;;;;;;;432.73;345.10;;;32.30;18.60;;;;;;4990934;28;20522;-53
2022/06/26 12:25:36;;;;;;;423.15;367.17;;;32.60;99.90;;;;;;4983363;28;20238;-54
2022/06/26 12:28:03;;;;;;;428.42;363.10;;;32.70;20.70;;;;;;4993810;28;20307;-53
2022/06/26 12:30:34;;;;;;;432.85;357.35;;;32.80;11.80;;;;;;5002058;28;20268;-53
2022/06/26 12:33:04;;;;;;;419.20;367.58;;;33.00;1.00;;;;;;5001375;28;20732;-53